Time;durP1;ratioP1;P1;durP2;ratioP2;P2;SDS_P1;SDS_P2;PMS_P1;PMS_P2;Temp;Humidity;BMP_temperature;BMP_pressure;BME280_temperature;BME280_humidity;BME280_pressure;Samples;Min_cycle;Max_cycle;Signal;HPM_P1;HPM_P2
2022/11/18 00:00:52;;;;;;;17.23;8.68;;;21.00;63.30;;;;;;4998949;28;86130;-81
2022/11/18 00:03:18;;;;;;;16.10;8.30;;;21.10;63.40;;;;;;5022137;28;87007;-81
2022/11/18 00:05:55;;;;;;;17.77;8.77;;;21.10;63.40;;;;;;5017711;28;86998;-80
2022/11/18 00:08:22;;;;;;;14.75;8.88;;;21.10;63.30;;;;;;5014806;28;85933;-82
2022/11/18 00:10:48;;;;;;;17.45;9.02;;;21.00;63.20;;;;;;5018794;28;86044;-82
2022/11/18 00:16:02;;;;;;;15.30;8.75;;;21.00;63.50;;;;;;5003759;28;86666;-82
2022/11/18 00:18:28;;;;;;;12.73;8.30;;;21.00;63.70;;;;;;5018461;28;86600;-81
2022/11/18 00:20:54;;;;;;;15.95;8.35;;;20.90;63.70;;;;;;5015685;28;86713;-83
2022/11/18 00:23:19;;;;;;;17.65;9.10;;;20.90;63.80;;;;;;5014804;28;87337;-83
2022/11/18 00:25:45;;;;;;;17.48;9.10;;;20.90;64.00;;;;;;5017332;28;86226;-83
2022/11/18 00:28:10;;;;;;;15.82;9.02;;;20.90;63.80;;;;;;5018280;27;86303;-82
2022/11/18 00:30:36;;;;;;;19.90;9.30;;;20.80;64.00;;;;;;5016559;28;86220;-82
2022/11/18 00:33:01;;;;;;;16.05;8.90;;;20.90;64.10;;;;;;5019858;28;87106;-83
2022/11/18 00:35:27;;;;;;;16.83;8.38;;;20.80;64.10;;;;;;5018278;28;86352;-82
2022/11/18 00:37:52;;;;;;;17.23;8.23;;;20.90;64.20;;;;;;5007291;27;85775;-83
2022/11/18 00:40:18;;;;;;;16.38;8.65;;;20.90;63.80;;;;;;5003793;28;86318;-83
2022/11/18 00:42:53;;;;;;;16.25;8.05;;;20.80;63.70;;;;;;5016687;28;87771;-82
2022/11/18 00:45:19;;;;;;;16.77;8.40;;;20.80;63.80;;;;;;5023332;28;86875;-83
2022/11/18 00:47:45;;;;;;;15.65;8.15;;;20.90;63.80;;;;;;5001302;28;85994;-83
2022/11/18 00:50:11;;;;;;;19.00;9.07;;;20.80;63.70;;;;;;5008099;28;86562;-82
2022/11/18 00:52:37;;;;;;;15.68;7.63;;;20.80;63.80;;;;;;5017393;28;87307;-83
2022/11/18 00:55:03;;;;;;;16.92;8.13;;;20.80;63.80;;;;;;5013908;28;86833;-82
2022/11/18 00:57:29;;;;;;;15.32;8.00;;;20.80;63.80;;;;;;4998299;28;86037;-83
2022/11/18 00:59:54;;;;;;;14.75;8.00;;;20.80;63.90;;;;;;5015052;28;85793;-83
2022/11/18 01:02:20;;;;;;;14.65;7.80;;;20.80;63.80;;;;;;5017677;28;86006;-82
2022/11/18 01:04:45;;;;;;;13.93;7.35;;;20.70;64.30;;;;;;5017424;28;86149;-83
2022/11/18 01:07:11;;;;;;;14.90;7.70;;;20.70;63.70;;;;;;5017771;28;86119;-82
2022/11/18 01:09:36;;;;;;;12.73;7.20;;;20.70;63.70;;;;;;5018357;27;86099;-83
2022/11/18 01:14:46;;;;;;;11.52;6.82;;;20.70;63.90;;;;;;5011857;28;86272;-82
2022/11/18 01:17:12;;;;;;;12.77;7.38;;;20.70;64.00;;;;;;5016313;28;86549;-83
2022/11/18 01:19:38;;;;;;;13.88;7.25;;;20.70;63.80;;;;;;5017432;28;86287;-83
2022/11/18 01:22:04;;;;;;;16.85;8.30;;;20.70;63.90;;;;;;5016651;27;85891;-83
2022/11/18 01:24:31;;;;;;;13.18;7.70;;;20.60;63.80;;;;;;4997994;28;87474;-83
2022/11/18 01:26:58;;;;;;;13.05;7.57;;;20.60;63.80;;;;;;5020497;28;86483;-83
2022/11/18 01:29:24;;;;;;;12.82;6.97;;;20.70;64.20;;;;;;5015945;28;85778;-82
2022/11/18 01:31:49;;;;;;;14.10;7.30;;;20.60;64.00;;;;;;5017081;28;87423;-83
2022/11/18 01:34:15;;;;;;;16.45;7.32;;;20.60;63.80;;;;;;5014925;28;86488;-83
2022/11/18 01:36:40;;;;;;;13.88;7.38;;;20.60;63.90;;;;;;5017833;28;85806;-83
2022/11/18 01:39:06;;;;;;;12.50;7.28;;;20.60;64.00;;;;;;5018507;27;86103;-83
2022/11/18 01:41:31;;;;;;;14.30;7.43;;;20.70;63.80;;;;;;5001923;28;86445;-83
2022/11/18 01:44:02;;;;;;;15.88;7.72;;;20.60;64.00;;;;;;5006468;28;87085;-83
2022/11/18 01:46:30;;;;;;;12.68;6.45;;;20.60;63.90;;;;;;5016593;28;86095;-82
2022/11/18 01:49:07;;;;;;;14.32;7.50;;;20.60;63.70;;;;;;5012599;28;85810;-83
2022/11/18 01:51:37;;;;;;;12.77;7.28;;;20.60;63.90;;;;;;4998815;28;87433;-82
2022/11/18 01:54:16;;;;;;;12.10;7.10;;;20.50;63.80;;;;;;5017121;28;86571;-83
2022/11/18 01:56:47;;;;;;;12.40;7.25;;;20.50;63.70;;;;;;5015318;28;86315;-83
2022/11/18 01:59:18;;;;;;;12.45;6.93;;;20.60;63.50;;;;;;5018206;28;86316;-83
2022/11/18 02:01:43;;;;;;;11.88;6.72;;;20.60;63.90;;;;;;5016256;28;86334;-83
2022/11/18 02:04:11;;;;;;;9.63;6.05;;;20.60;63.90;;;;;;5016054;27;86447;-83
2022/11/18 02:06:37;;;;;;;12.90;7.13;;;20.50;63.90;;;;;;5003327;28;86296;-83
2022/11/18 02:09:03;;;;;;;14.30;7.40;;;20.50;63.80;;;;;;5017788;28;86097;-83
2022/11/18 02:14:14;;;;;;;12.18;6.93;;;20.50;63.80;;;;;;5019463;28;85931;-82
2022/11/18 02:16:53;;;;;;;13.18;6.93;;;20.50;63.80;;;;;;5014669;27;86337;-83
2022/11/18 02:19:46;;;;;;;12.48;7.03;;;20.50;63.80;;;;;;5007154;27;87066;-83
2022/11/18 02:22:49;;;;;;;10.07;6.03;;;20.50;63.80;;;;;;5019333;28;86650;-83
2022/11/18 02:25:42;;;;;;;13.43;6.70;;;20.50;63.80;;;;;;5012000;27;86361;-83
2022/11/18 02:28:34;;;;;;;11.95;6.75;;;20.50;63.60;;;;;;5004909;28;86084;-83
2022/11/18 02:31:09;;;;;;;9.90;6.43;;;20.50;63.60;;;;;;5021930;28;86522;-83
2022/11/18 02:33:43;;;;;;;9.30;5.78;;;20.50;63.80;;;;;;5022240;28;87265;-83
2022/11/18 02:36:20;;;;;;;12.27;6.47;;;20.40;63.80;;;;;;5018642;28;90825;-82
2022/11/18 02:38:52;;;;;;;11.98;7.10;;;20.50;63.90;;;;;;5020487;28;85730;-82
2022/11/18 02:41:26;;;;;;;11.60;6.35;;;20.40;63.70;;;;;;5003991;28;86262;-82
2022/11/18 02:43:57;;;;;;;9.55;5.85;;;20.40;63.70;;;;;;5011255;28;88099;-83
2022/11/18 02:46:27;;;;;;;11.63;6.13;;;20.40;63.70;;;;;;5016717;28;85883;-82
2022/11/18 02:48:54;;;;;;;10.68;6.10;;;20.40;63.50;;;;;;5017419;27;85686;-82
2022/11/18 02:51:24;;;;;;;10.52;6.03;;;20.40;63.30;;;;;;4998792;28;86305;-82
2022/11/18 02:53:51;;;;;;;12.85;6.22;;;20.40;63.50;;;;;;5017402;28;86989;-83
2022/11/18 02:56:19;;;;;;;11.43;5.95;;;20.40;63.60;;;;;;5016949;28;86987;-82
2022/11/18 02:58:44;;;;;;;8.90;5.45;;;20.40;63.50;;;;;;5010725;28;86479;-83
2022/11/18 03:01:19;;;;;;;11.23;6.38;;;20.40;63.50;;;;;;5003922;28;86259;-83
2022/11/18 03:03:45;;;;;;;10.05;6.00;;;20.40;63.70;;;;;;5017907;27;86507;-83
2022/11/18 03:06:18;;;;;;;11.25;6.80;;;20.40;63.70;;;;;;5023139;28;86205;-83
2022/11/18 03:09:26;;;;;;;10.13;6.32;;;20.30;63.50;;;;;;5017818;28;85723;-82
2022/11/18 03:11:57;;;;;;;10.52;6.30;;;20.40;63.60;;;;;;5001411;27;86269;-83
2022/11/18 03:14:39;;;;;;;10.98;6.75;;;20.40;63.70;;;;;;5016436;28;86824;-83
2022/11/18 03:17:19;;;;;;;11.20;6.18;;;20.30;63.70;;;;;;5019196;27;86318;-82
2022/11/18 03:19:58;;;;;;;10.20;5.82;;;20.40;63.80;;;;;;5018063;28;87122;-82
2022/11/18 03:22:51;;;;;;;10.53;6.13;;;20.40;63.80;;;;;;5018090;28;86282;-82
2022/11/18 03:25:27;;;;;;;10.85;6.20;;;20.30;63.70;;;;;;5013757;28;87521;-82
2022/11/18 03:28:05;;;;;;;11.85;5.70;;;20.30;63.70;;;;;;4999458;28;87651;-83
2022/11/18 03:30:33;;;;;;;12.57;5.50;;;20.30;63.80;;;;;;5019143;28;86572;-82
2022/11/18 03:33:07;;;;;;;8.48;5.50;;;20.30;63.80;;;;;;5018330;28;85746;-83
2022/11/18 03:35:36;;;;;;;10.32;5.53;;;20.30;63.80;;;;;;5020865;28;86901;-82
2022/11/18 03:38:13;;;;;;;9.57;6.15;;;20.30;63.90;;;;;;5006190;28;86298;-82
2022/11/18 03:40:43;;;;;;;9.02;5.35;;;20.30;64.00;;;;;;5003482;28;86104;-83
2022/11/18 03:43:13;;;;;;;9.25;5.82;;;20.30;64.80;;;;;;5020378;28;85673;-82
2022/11/18 03:45:50;;;;;;;10.23;5.70;;;20.30;63.90;;;;;;5017144;27;87158;-83
2022/11/18 03:48:18;;;;;;;10.40;5.60;;;20.20;63.70;;;;;;5000890;28;90770;-83
2022/11/18 03:50:48;;;;;;;11.10;6.03;;;20.30;64.00;;;;;;5000901;28;86118;-83
2022/11/18 03:53:16;;;;;;;10.02;5.68;;;20.20;63.90;;;;;;5009490;28;86144;-83
2022/11/18 03:55:47;;;;;;;8.95;5.18;;;20.20;63.90;;;;;;5017694;28;86984;-82
2022/11/18 03:58:26;;;;;;;8.65;5.20;;;20.20;63.90;;;;;;5012866;28;86531;-83
2022/11/18 04:01:00;;;;;;;10.02;5.65;;;20.20;63.90;;;;;;5000189;28;86148;-83
2022/11/18 04:03:26;;;;;;;8.18;5.32;;;20.20;64.00;;;;;;5016900;28;86533;-83
2022/11/18 04:06:02;;;;;;;8.70;5.30;;;20.20;64.20;;;;;;5017382;28;87367;-83
2022/11/18 04:08:34;;;;;;;9.77;5.50;;;20.20;64.10;;;;;;5002449;27;87026;-82
2022/11/18 04:12:01;;;;;;;11.40;5.20;;;20.20;63.90;;;;;;5009387;28;85835;-83
2022/11/18 04:14:00;;;;;;;8.75;5.40;;;20.20;63.80;;;;;;5016429;27;86051;-83
2022/11/18 04:16:25;;;;;;;9.10;5.88;;;20.20;64.00;;;;;;5014360;28;86103;-83
2022/11/18 04:18:51;;;;;;;7.05;4.90;;;20.20;63.90;;;;;;5015517;27;86246;-82
2022/11/18 04:21:17;;;;;;;8.38;5.30;;;20.20;63.90;;;;;;4997999;28;85673;-82
2022/11/18 04:23:42;;;;;;;8.13;4.85;;;20.20;63.90;;;;;;5015791;28;86497;-83
2022/11/18 04:26:10;;;;;;;10.25;5.50;;;20.20;63.80;;;;;;5017789;28;86264;-83
2022/11/18 04:28:36;;;;;;;9.90;5.57;;;20.20;63.90;;;;;;5008885;27;85906;-83
2022/11/18 04:31:01;;;;;;;8.32;5.00;;;20.20;63.80;;;;;;4999989;28;86349;-83
2022/11/18 04:33:27;;;;;;;8.27;4.93;;;20.20;63.80;;;;;;5017610;28;86122;-83
2022/11/18 04:35:52;;;;;;;7.30;5.00;;;20.20;63.80;;;;;;5017714;28;86567;-83
2022/11/18 04:38:18;;;;;;;7.55;4.75;;;20.20;63.80;;;;;;5017913;27;86532;-82
2022/11/18 04:40:45;;;;;;;9.40;5.82;;;20.10;63.80;;;;;;5017786;27;85922;-83
2022/11/18 04:43:11;;;;;;;8.43;5.20;;;20.10;63.90;;;;;;5018626;28;86422;-83
2022/11/18 04:45:36;;;;;;;9.05;5.32;;;20.10;63.90;;;;;;5015332;28;86281;-82
2022/11/18 04:48:02;;;;;;;7.32;4.72;;;20.10;63.80;;;;;;4994111;28;86291;-83
2022/11/18 04:50:28;;;;;;;9.25;5.10;;;20.10;63.80;;;;;;5013696;28;85795;-82
2022/11/18 04:52:53;;;;;;;6.68;4.82;;;20.10;63.80;;;;;;5017123;28;86115;-83
2022/11/18 04:55:19;;;;;;;8.13;4.32;;;20.10;63.80;;;;;;5013805;27;86934;-83
2022/11/18 04:57:44;;;;;;;9.45;4.93;;;20.10;63.60;;;;;;4996080;28;87265;-82
2022/11/18 05:00:10;;;;;;;8.32;5.28;;;20.10;63.70;;;;;;4999386;28;86103;-82
2022/11/18 05:02:36;;;;;;;6.63;4.38;;;20.10;63.80;;;;;;5010786;28;86373;-82
2022/11/18 05:05:02;;;;;;;8.30;4.50;;;20.10;63.80;;;;;;5019661;28;86464;-83
2022/11/18 05:07:27;;;;;;;7.97;4.97;;;20.10;63.70;;;;;;5019807;28;86617;-83
2022/11/18 05:09:53;;;;;;;8.65;4.80;;;20.10;63.70;;;;;;5015582;27;86258;-82
2022/11/18 05:15:03;;;;;;;8.38;4.93;;;20.10;63.90;;;;;;5015549;28;86204;-83
2022/11/18 05:17:28;;;;;;;8.93;4.72;;;20.10;63.80;;;;;;4999731;27;88508;-83
2022/11/18 05:19:54;;;;;;;8.60;5.07;;;20.00;63.90;;;;;;5007540;28;86362;-82
2022/11/18 05:22:20;;;;;;;9.05;5.20;;;20.00;63.90;;;;;;5018555;28;85741;-82
2022/11/18 05:24:45;;;;;;;7.57;4.75;;;20.00;63.80;;;;;;5015258;27;86811;-83
2022/11/18 05:27:12;;;;;;;7.78;4.57;;;20.00;64.00;;;;;;5000099;28;86348;-82
2022/11/18 05:29:38;;;;;;;8.57;4.35;;;20.00;63.70;;;;;;5013410;28;86312;-82
2022/11/18 05:32:04;;;;;;;8.65;4.53;;;20.00;63.80;;;;;;5019095;28;86441;-83
2022/11/18 05:34:29;;;;;;;6.45;3.90;;;20.00;63.80;;;;;;5014447;28;86846;-82
2022/11/18 05:36:55;;;;;;;7.50;4.57;;;20.00;63.80;;;;;;5015395;28;86988;-83
2022/11/18 05:39:20;;;;;;;9.20;4.90;;;20.00;63.80;;;;;;5019597;27;86734;-82
2022/11/18 05:44:30;;;;;;;6.78;4.22;;;20.00;63.60;;;;;;5015383;28;86265;-83
2022/11/18 05:46:56;;;;;;;7.60;4.47;;;20.00;63.60;;;;;;5018361;28;86345;-82
2022/11/18 05:49:22;;;;;;;7.85;4.50;;;20.00;63.60;;;;;;5020688;28;86268;-83
2022/11/18 05:51:47;;;;;;;6.13;4.00;;;20.00;63.70;;;;;;5020432;27;86481;-82
2022/11/18 05:54:15;;;;;;;7.85;4.60;;;19.90;63.70;;;;;;4997603;28;87381;-83
2022/11/18 05:56:45;;;;;;;6.70;4.50;;;19.90;63.40;;;;;;5016597;28;87833;-83
2022/11/18 05:59:12;;;;;;;6.70;4.35;;;19.90;63.60;;;;;;5019210;28;87177;-82
2022/11/18 06:02:05;;;;;;;7.75;4.47;;;19.90;64.30;;;;;;5017273;28;86369;-83
2022/11/18 06:04:40;;;;;;;6.10;4.03;;;19.90;63.40;;;;;;5014122;28;87404;-83
2022/11/18 06:07:20;;;;;;;8.50;4.32;;;19.90;63.50;;;;;;5003675;28;86953;-83
2022/11/18 06:09:50;;;;;;;5.05;4.00;;;19.90;63.40;;;;;;5020183;28;86373;-83
2022/11/18 06:12:20;;;;;;;6.95;4.32;;;19.90;63.50;;;;;;5020756;28;85692;-82
2022/11/18 06:14:53;;;;;;;6.13;3.70;;;19.90;63.30;;;;;;5001311;27;87063;-83
2022/11/18 06:17:28;;;;;;;6.18;4.20;;;19.90;63.50;;;;;;5011285;28;85892;-83
2022/11/18 06:19:54;;;;;;;8.43;4.53;;;19.90;63.10;;;;;;5022106;27;86339;-83
2022/11/18 06:22:20;;;;;;;6.82;4.03;;;19.90;63.50;;;;;;5013186;27;85981;-83
2022/11/18 06:24:45;;;;;;;6.47;4.05;;;19.90;63.40;;;;;;5001321;28;88270;-83
2022/11/18 06:27:12;;;;;;;5.50;3.60;;;19.90;63.50;;;;;;5021938;28;86631;-83
2022/11/18 06:29:38;;;;;;;6.05;3.47;;;19.90;63.50;;;;;;5017530;28;85731;-82
2022/11/18 06:32:03;;;;;;;5.28;3.97;;;19.90;63.30;;;;;;5026579;28;86251;-83
2022/11/18 06:34:29;;;;;;;6.07;3.40;;;19.90;63.70;;;;;;5001577;28;88510;-83
2022/11/18 06:36:54;;;;;;;6.53;4.18;;;19.80;63.50;;;;;;5019920;27;86246;-83
2022/11/18 06:39:20;;;;;;;5.82;3.95;;;19.90;63.60;;;;;;5021849;28;86316;-82
2022/11/18 06:41:46;;;;;;;5.22;3.78;;;19.90;63.50;;;;;;5021022;27;86386;-83
2022/11/18 06:44:12;;;;;;;5.38;3.42;;;19.80;63.30;;;;;;5020384;27;86823;-83
2022/11/18 06:46:56;;;;;;;6.13;4.00;;;19.90;63.30;;;;;;5020449;27;86473;-83
2022/11/18 06:49:22;;;;;;;5.88;3.88;;;19.90;63.40;;;;;;5020144;27;86226;-83
2022/11/18 06:51:48;;;;;;;7.40;4.30;;;19.90;63.30;;;;;;5021759;27;85719;-83
2022/11/18 06:54:13;;;;;;;5.95;3.67;;;19.80;63.20;;;;;;5019613;28;86970;-83
2022/11/18 06:56:39;;;;;;;4.72;3.25;;;19.90;63.30;;;;;;5020854;27;86356;-83
2022/11/18 06:59:05;;;;;;;5.80;3.80;;;19.80;63.00;;;;;;5019482;27;86766;-83
2022/11/18 07:01:34;;;;;;;5.03;3.60;;;19.80;63.30;;;;;;5017339;27;86248;-83
2022/11/18 07:04:00;;;;;;;6.50;3.63;;;19.80;63.20;;;;;;4999589;27;90460;-83
2022/11/18 07:06:28;;;;;;;4.68;3.20;;;19.90;63.40;;;;;;5020694;28;86123;-82
2022/11/18 07:08:55;;;;;;;6.75;3.70;;;19.80;63.30;;;;;;5018093;28;86102;-83
2022/11/18 07:11:23;;;;;;;5.88;3.55;;;19.80;63.40;;;;;;5022880;27;86331;-83
2022/11/18 07:13:49;;;;;;;5.88;3.72;;;19.80;63.30;;;;;;5019235;27;87294;-83
2022/11/18 07:16:17;;;;;;;6.07;3.72;;;19.80;63.30;;;;;;5020384;27;86326;-82
2022/11/18 07:18:44;;;;;;;5.40;3.23;;;19.80;63.20;;;;;;5020098;27;86170;-82
2022/11/18 07:21:15;;;;;;;6.35;3.80;;;19.80;63.20;;;;;;5020463;28;86457;-82
2022/11/18 07:23:42;;;;;;;6.00;3.72;;;19.80;64.10;;;;;;5021132;27;87980;-83
2022/11/18 07:26:08;;;;;;;5.20;3.65;;;19.80;63.20;;;;;;5022114;27;86922;-82
2022/11/18 07:28:34;;;;;;;5.15;3.63;;;19.80;63.20;;;;;;5020498;27;85720;-83
2022/11/18 07:31:05;;;;;;;5.18;3.60;;;19.80;63.10;;;;;;5020321;27;85921;-83
2022/11/18 07:33:32;;;;;;;7.30;3.42;;;19.80;62.80;;;;;;5019793;28;87409;-83
2022/11/18 07:36:06;;;;;;;5.38;3.65;;;19.90;62.70;;;;;;5021712;27;86282;-84
2022/11/18 07:38:32;;;;;;;6.43;3.40;;;19.90;62.50;;;;;;5023128;27;86212;-84
2022/11/18 07:41:07;;;;;;;6.30;3.30;;;20.00;62.70;;;;;;5011903;27;85675;-84
2022/11/18 07:43:34;;;;;;;7.63;3.70;;;20.00;62.80;;;;;;5022250;28;87065;-84
2022/11/18 07:46:18;;;;;;;7.40;4.00;;;20.20;63.20;;;;;;5020947;27;86639;-85
2022/11/18 07:48:45;;;;;;;7.43;3.70;;;20.20;62.40;;;;;;5025811;27;85829;-85
2022/11/18 07:51:13;;;;;;;9.02;4.07;;;20.30;62.20;;;;;;5016827;28;86980;-83
2022/11/18 07:53:39;;;;;;;6.65;3.63;;;20.50;61.80;;;;;;5023115;28;87069;-84
2022/11/18 07:56:06;;;;;;;6.93;4.07;;;20.50;62.20;;;;;;5025573;28;85773;-83
2022/11/18 07:58:32;;;;;;;6.72;3.83;;;20.50;62.50;;;;;;5024964;28;86291;-83
2022/11/18 08:00:58;;;;;;;9.07;3.72;;;20.50;62.50;;;;;;5026047;27;85922;-83
2022/11/18 08:03:27;;;;;;;8.30;4.45;;;20.50;62.40;;;;;;5027666;27;85737;-83
2022/11/18 08:05:58;;;;;;;7.90;4.18;;;20.50;62.60;;;;;;5021381;27;86618;-83
2022/11/18 08:08:24;;;;;;;6.47;3.75;;;20.50;62.60;;;;;;5022425;28;85729;-83
2022/11/18 08:10:49;;;;;;;9.05;4.43;;;20.60;62.90;;;;;;5024323;28;86078;-83
2022/11/18 08:13:15;;;;;;;5.85;3.55;;;20.60;62.90;;;;;;5022879;27;87399;-83
2022/11/18 08:15:42;;;;;;;6.65;3.22;;;20.60;62.80;;;;;;5022630;28;87085;-85
2022/11/18 08:18:07;;;;;;;13.70;3.67;;;20.70;62.80;;;;;;5023511;27;85801;-84
2022/11/18 08:20:34;;;;;;;10.32;3.90;;;20.80;62.40;;;;;;5023165;28;86580;-84
2022/11/18 08:22:59;;;;;;;5.85;3.80;;;20.80;62.40;;;;;;5026737;28;88050;-84
2022/11/18 08:25:25;;;;;;;5.75;3.85;;;20.80;62.70;;;;;;4978067;27;87024;-84
2022/11/18 08:27:51;;;;;;;7.97;3.25;;;20.70;62.70;;;;;;5023397;27;85986;-83
2022/11/18 08:30:17;;;;;;;7.00;4.00;;;20.80;62.20;;;;;;5043087;27;86309;-84
2022/11/18 08:32:43;;;;;;;9.25;3.75;;;20.80;62.20;;;;;;5042694;27;87296;-83
2022/11/18 08:35:09;;;;;;;6.18;3.70;;;20.80;62.10;;;;;;5043502;27;86571;-84
2022/11/18 08:37:34;;;;;;;6.45;3.60;;;20.80;62.40;;;;;;5040776;27;85923;-83
2022/11/18 08:40:00;;;;;;;7.97;3.90;;;20.80;62.30;;;;;;5042269;27;86320;-84
2022/11/18 08:42:25;;;;;;;8.75;3.63;;;21.00;61.70;;;;;;5045459;27;87200;-84
2022/11/18 08:44:51;;;;;;;7.32;3.67;;;21.00;61.70;;;;;;5045723;27;86792;-84
2022/11/18 08:47:17;;;;;;;18.70;5.45;;;20.90;61.80;;;;;;5023233;27;86026;-83
2022/11/18 08:49:42;;;;;;;19.23;5.65;;;20.80;62.00;;;;;;5041026;27;85725;-83
2022/11/18 08:52:09;;;;;;;14.48;4.50;;;20.90;62.20;;;;;;5043066;27;86914;-83
2022/11/18 08:54:34;;;;;;;9.75;4.13;;;20.90;62.00;;;;;;5041223;27;86264;-83
2022/11/18 08:57:00;;;;;;;15.15;5.00;;;20.80;62.00;;;;;;5041614;27;85800;-83
2022/11/18 08:59:26;;;;;;;11.50;4.68;;;20.80;62.20;;;;;;5040728;27;86139;-83
2022/11/18 09:01:51;;;;;;;15.32;5.15;;;20.80;62.30;;;;;;5039488;27;89017;-83
2022/11/18 09:04:17;;;;;;;12.73;4.70;;;20.80;62.40;;;;;;5038530;27;86757;-84
2022/11/18 09:06:43;;;;;;;22.42;5.85;;;20.80;62.50;;;;;;5025018;27;86472;-84
2022/11/18 09:09:08;;;;;;;19.17;5.78;;;20.80;61.90;;;;;;5045966;27;86392;-84
2022/11/18 09:11:36;;;;;;;14.23;4.80;;;20.70;61.90;;;;;;5045403;27;86388;-84
2022/11/18 09:14:02;;;;;;;25.70;5.90;;;20.70;62.30;;;;;;5043603;27;87414;-83
2022/11/18 09:16:30;;;;;;;14.15;4.55;;;20.90;62.50;;;;;;5044926;27;86090;-85
2022/11/18 09:18:56;;;;;;;22.27;6.63;;;21.00;61.90;;;;;;5045118;27;86175;-85
2022/11/18 09:21:25;;;;;;;42.88;8.35;;;21.00;61.50;;;;;;5043401;27;86791;-85
2022/11/18 09:23:51;;;;;;;47.10;9.30;;;21.10;60.60;;;;;;5025663;27;88941;-85
2022/11/18 09:26:22;;;;;;;57.47;11.52;;;21.10;60.20;;;;;;5046232;27;85690;-85
2022/11/18 09:28:51;;;;;;;39.83;9.95;;;21.20;59.40;;;;;;5025112;27;87058;-86
2022/11/18 09:31:17;;;;;;;27.65;8.65;;;21.10;59.40;;;;;;5045365;27;86991;-84
2022/11/18 09:33:43;;;;;;;32.30;8.30;;;21.10;59.40;;;;;;5027381;27;88974;-86
2022/11/18 09:36:15;;;;;;;35.45;8.68;;;21.10;59.90;;;;;;5045150;27;85726;-83
2022/11/18 09:38:41;;;;;;;46.10;10.00;;;21.20;59.40;;;;;;5042250;27;85898;-86
2022/11/18 09:41:26;;;;;;;42.33;10.20;;;21.10;59.60;;;;;;5038505;27;90126;-84
2022/11/18 09:44:03;;;;;;;37.08;9.52;;;21.00;59.90;;;;;;5043148;27;90827;-84
2022/11/18 09:47:13;;;;;;;38.08;9.07;;;21.00;60.30;;;;;;5041877;27;86473;-84
2022/11/18 09:49:41;;;;;;;34.28;8.85;;;21.00;59.90;;;;;;4913950;28;86311;-84
2022/11/18 09:52:35;;;;;;;34.38;9.77;;;21.00;60.40;;;;;;4922490;28;91376;-84
2022/11/18 09:55:00;;;;;;;35.92;8.90;;;21.00;59.90;;;;;;4920800;28;86579;-83
2022/11/18 09:57:48;;;;;;;32.85;9.23;;;21.00;60.50;;;;;;4919120;28;86097;-83
2022/11/18 10:00:17;;;;;;;32.00;9.63;;;20.90;60.80;;;;;;4920761;28;86318;-83
2022/11/18 10:02:58;;;;;;;25.98;7.30;;;21.00;61.30;;;;;;4918752;28;87026;-83
2022/11/18 10:05:29;;;;;;;28.00;8.32;;;20.90;63.20;;;;;;4919988;28;86818;-82
2022/11/18 10:08:10;;;;;;;27.73;8.07;;;20.90;62.90;;;;;;4920140;28;86207;-83
2022/11/18 10:10:47;;;;;;;29.40;8.25;;;20.80;62.40;;;;;;4907304;28;86164;-84
2022/11/18 10:13:19;;;;;;;31.55;8.30;;;20.90;62.60;;;;;;4923832;28;87650;-85
2022/11/18 10:16:25;;;;;;;25.33;8.32;;;20.90;62.40;;;;;;4921836;28;85945;-84
2022/11/18 10:18:59;;;;;;;31.75;7.68;;;21.00;62.00;;;;;;4924670;28;86571;-85
2022/11/18 10:21:55;;;;;;;33.55;8.07;;;21.10;61.80;;;;;;4920552;28;85950;-83
2022/11/18 10:24:29;;;;;;;28.13;7.38;;;21.00;62.60;;;;;;4918005;28;87306;-83
2022/11/18 10:26:56;;;;;;;23.23;7.30;;;21.10;62.50;;;;;;4988183;28;86345;-83
2022/11/18 10:29:22;;;;;;;62.88;8.73;;;21.10;62.70;;;;;;5024204;28;85673;-78
2022/11/18 10:32:03;;;;;;;26.75;7.72;;;21.20;79.30;;;;;;5003717;28;86148;-79
2022/11/18 10:34:29;;;;;;;22.85;7.43;;;21.20;65.00;;;;;;5021148;28;86108;-78
2022/11/18 10:37:00;;;;;;;29.95;7.82;;;21.20;63.60;;;;;;5014954;28;86096;-79
2022/11/18 10:39:25;;;;;;;40.72;9.52;;;21.20;64.00;;;;;;5020508;28;86156;-80
2022/11/18 10:41:54;;;;;;;29.08;8.77;;;21.20;65.00;;;;;;5014512;28;85788;-80
2022/11/18 10:44:32;;;;;;;39.38;9.73;;;21.10;64.20;;;;;;5020501;28;88130;-80
2022/11/18 10:47:20;;;;;;;37.40;10.15;;;21.10;65.00;;;;;;5019415;28;90762;-80
2022/11/18 10:49:45;;;;;;;30.75;8.63;;;21.10;64.30;;;;;;5016242;28;86048;-80
2022/11/18 10:52:13;;;;;;;34.58;10.40;;;21.10;64.20;;;;;;5034697;27;86476;-80
2022/11/18 10:54:39;;;;;;;31.52;8.88;;;21.00;64.50;;;;;;5025784;27;86814;-80
2022/11/18 10:57:23;;;;;;;30.45;9.30;;;21.10;64.60;;;;;;5017407;27;86343;-81
2022/11/18 10:59:54;;;;;;;33.42;9.57;;;21.00;65.00;;;;;;5021885;28;86438;-80
2022/11/18 11:02:32;;;;;;;26.15;8.43;;;20.80;65.10;;;;;;5018735;28;86112;-80
2022/11/18 11:05:14;;;;;;;27.00;8.88;;;20.90;64.70;;;;;;5040944;27;90889;-81
2022/11/18 11:07:40;;;;;;;26.95;8.88;;;20.90;65.00;;;;;;5019975;27;87134;-81
2022/11/18 11:10:05;;;;;;;30.27;8.75;;;20.80;65.20;;;;;;5018548;27;86406;-80
2022/11/18 11:12:46;;;;;;;45.28;9.65;;;20.80;65.60;;;;;;5016369;28;86632;-80
2022/11/18 11:15:35;;;;;;;27.85;9.05;;;20.80;65.60;;;;;;5020521;28;87409;-80
2022/11/18 11:18:40;;;;;;;33.08;9.95;;;20.80;65.90;;;;;;5018924;28;86325;-80
2022/11/18 11:21:21;;;;;;;26.80;8.52;;;20.80;65.90;;;;;;5018817;28;86498;-79
2022/11/18 11:23:47;;;;;;;34.97;10.85;;;20.90;64.70;;;;;;5018858;28;85740;-80
2022/11/18 11:26:27;;;;;;;31.02;9.95;;;20.90;65.00;;;;;;5016927;28;87475;-79
2022/11/18 11:29:13;;;;;;;33.25;11.10;;;20.80;65.40;;;;;;5036146;27;90754;-80
2022/11/18 11:31:57;;;;;;;32.75;11.45;;;21.00;64.50;;;;;;5017518;27;86136;-80
2022/11/18 11:34:35;;;;;;;33.35;10.32;;;20.90;64.60;;;;;;5014557;27;86100;-80
2022/11/18 11:37:13;;;;;;;60.13;22.33;;;20.90;65.00;;;;;;5031991;27;90067;-81
2022/11/18 11:40:00;;;;;;;72.68;26.63;;;20.90;62.30;;;;;;5034340;27;88197;-82
2022/11/18 11:42:44;;;;;;;54.25;20.15;;;20.90;60.20;;;;;;5038756;27;86478;-81
2022/11/18 11:45:23;;;;;;;54.38;17.63;;;20.90;61.20;;;;;;5036108;27;86003;-81
2022/11/18 11:48:04;;;;;;;48.28;15.48;;;20.90;61.10;;;;;;5032404;27;86569;-81
2022/11/18 11:50:52;;;;;;;47.72;14.93;;;20.90;60.30;;;;;;5015120;27;86246;-81
2022/11/18 11:53:42;;;;;;;37.83;13.38;;;20.90;60.30;;;;;;5019241;27;86131;-81
2022/11/18 11:56:32;;;;;;;42.72;14.00;;;20.80;60.10;;;;;;5014366;28;88126;-80
2022/11/18 11:59:18;;;;;;;39.55;13.48;;;20.80;60.90;;;;;;5014625;28;92028;-80
2022/11/18 12:02:06;;;;;;;36.25;11.68;;;20.80;60.70;;;;;;5037333;27;86833;-82
2022/11/18 12:04:44;;;;;;;27.63;10.23;;;20.80;59.70;;;;;;5005342;28;86158;-80
2022/11/18 12:07:17;;;;;;;30.07;10.80;;;20.80;58.70;;;;;;5016338;27;85941;-81
2022/11/18 12:10:04;;;;;;;27.15;9.35;;;20.70;59.30;;;;;;5008470;27;90804;-81
2022/11/18 12:12:58;;;;;;;33.72;9.25;;;20.60;59.60;;;;;;5035963;27;87434;-80
2022/11/18 12:15:46;;;;;;;33.92;9.05;;;20.70;58.50;;;;;;5035692;27;86138;-80
2022/11/18 12:18:11;;;;;;;26.67;7.10;;;20.60;59.20;;;;;;5037146;27;89206;-80
2022/11/18 12:20:47;;;;;;;21.90;7.32;;;20.60;57.60;;;;;;5033318;27;86272;-80
2022/11/18 12:23:15;;;;;;;24.63;7.65;;;20.60;57.90;;;;;;5039125;27;87001;-80
2022/11/18 12:25:46;;;;;;;25.33;7.00;;;20.60;61.20;;;;;;5035680;27;86369;-80
2022/11/18 12:28:32;;;;;;;25.35;7.68;;;20.60;64.10;;;;;;5018633;27;86045;-80
2022/11/18 12:31:19;;;;;;;23.80;6.63;;;20.60;68.20;;;;;;5038587;27;87356;-83
2022/11/18 12:33:52;;;;;;;11.50;4.25;;;20.50;63.20;;;;;;5038947;27;86127;-81
2022/11/18 12:36:27;;;;;;;12.27;5.28;;;20.50;65.40;;;;;;5037209;27;86219;-82
2022/11/18 12:38:53;;;;;;;12.57;4.57;;;20.40;67.10;;;;;;5038286;27;86232;-81
2022/11/18 12:44:27;;;;;;;17.17;4.47;;;20.40;62.90;;;;;;5039550;27;90494;-81
2022/11/18 12:46:54;;;;;;;13.88;4.22;;;20.30;62.40;;;;;;5039911;27;86302;-83
2022/11/18 12:49:25;;;;;;;9.60;3.72;;;20.30;61.60;;;;;;5039264;27;85637;-81
2022/11/18 12:51:53;;;;;;;16.67;2.95;;;20.20;59.90;;;;;;5036594;27;88337;-82
2022/11/18 12:54:39;;;;;;;10.82;3.80;;;20.20;58.80;;;;;;5042013;27;87569;-83
2022/11/18 12:57:28;;;;;;;8.95;3.05;;;20.10;60.90;;;;;;5045508;27;85857;-82
2022/11/18 12:59:55;;;;;;;12.38;2.90;;;20.00;60.10;;;;;;4946247;28;86171;-81
2022/11/18 13:02:20;;;;;;;5.32;2.10;;;20.10;59.40;;;;;;4926341;28;89180;-81
2022/11/18 13:05:05;;;;;;;12.40;3.08;;;20.20;58.90;;;;;;4913919;28;86386;-81
2022/11/18 13:08:13;;;;;;;10.63;2.95;;;20.30;58.70;;;;;;4945501;28;86007;-81
2022/11/18 13:10:42;;;;;;;9.50;2.13;;;20.30;57.80;;;;;;4921547;28;85903;-81
2022/11/18 13:13:31;;;;;;;6.68;2.10;;;20.40;56.20;;;;;;4944104;28;87029;-81
2022/11/18 13:18:50;;;;;;;4.40;2.20;;;20.50;55.70;;;;;;4947506;28;86236;-81
2022/11/18 13:24:15;;;;;;;5.10;2.08;;;20.50;55.10;;;;;;4945644;28;86228;-81